sensor_id;sensor_type;location;lat;lon;timestamp;temperature;humidity
6178;DHT22;3122;48.208;11.174;2023-08-21T00:04:20;21.50;1.00
6178;DHT22;3122;48.208;11.174;2023-08-21T00:09:20;21.60;1.00
6178;DHT22;3122;48.208;11.174;2023-08-21T00:14:21;21.70;1.00
6178;DHT22;3122;48.208;11.174;2023-08-21T00:19:22;21.90;1.00
6178;DHT22;3122;48.208;11.174;2023-08-21T00:24:22;21.70;1.00
6178;DHT22;3122;48.208;11.174;2023-08-21T00:29:23;21.50;1.00
6178;DHT22;3122;48.208;11.174;2023-08-21T00:34:23;21.40;1.00
6178;DHT22;3122;48.208;11.174;2023-08-21T00:39:24;21.10;1.00
6178;DHT22;3122;48.208;11.174;2023-08-21T00:44:24;21.00;1.00
6178;DHT22;3122;48.208;11.174;2023-08-21T00:49:25;21.00;1.00
6178;DHT22;3122;48.208;11.174;2023-08-21T00:54:26;20.90;1.00
6178;DHT22;3122;48.208;11.174;2023-08-21T00:59:26;20.80;1.00
6178;DHT22;3122;48.208;11.174;2023-08-21T01:04:27;20.80;1.00
6178;DHT22;3122;48.208;11.174;2023-08-21T01:09:35;20.80;1.00
6178;DHT22;3122;48.208;11.174;2023-08-21T01:14:45;20.80;1.00
6178;DHT22;3122;48.208;11.174;2023-08-21T01:19:50;20.70;1.00
6178;DHT22;3122;48.208;11.174;2023-08-21T01:24:51;20.70;1.00
6178;DHT22;3122;48.208;11.174;2023-08-21T01:29:51;20.60;1.00
6178;DHT22;3122;48.208;11.174;2023-08-21T01:34:55;20.60;1.00
6178;DHT22;3122;48.208;11.174;2023-08-21T01:39:59;20.40;1.00
6178;DHT22;3122;48.208;11.174;2023-08-21T01:44:59;20.20;1.00
6178;DHT22;3122;48.208;11.174;2023-08-21T01:50:00;20.20;1.00
6178;DHT22;3122;48.208;11.174;2023-08-21T01:55:00;20.10;1.00
6178;DHT22;3122;48.208;11.174;2023-08-21T02:00:02;19.90;1.00
6178;DHT22;3122;48.208;11.174;2023-08-21T02:05:05;19.90;1.00
6178;DHT22;3122;48.208;11.174;2023-08-21T02:10:06;20.00;1.00
6178;DHT22;3122;48.208;11.174;2023-08-21T02:15:07;20.10;1.00
6178;DHT22;3122;48.208;11.174;2023-08-21T02:20:09;20.10;1.00
6178;DHT22;3122;48.208;11.174;2023-08-21T02:25:10;20.00;1.00
6178;DHT22;3122;48.208;11.174;2023-08-21T02:30:11;19.80;1.00
6178;DHT22;3122;48.208;11.174;2023-08-21T02:35:11;19.80;1.00
6178;DHT22;3122;48.208;11.174;2023-08-21T02:40:12;19.70;1.00
6178;DHT22;3122;48.208;11.174;2023-08-21T02:45:12;19.60;1.00
6178;DHT22;3122;48.208;11.174;2023-08-21T02:50:13;19.50;1.00
6178;DHT22;3122;48.208;11.174;2023-08-21T02:55:14;19.60;1.00
6178;DHT22;3122;48.208;11.174;2023-08-21T03:00:16;19.40;1.00
6178;DHT22;3122;48.208;11.174;2023-08-21T03:05:17;19.30;1.00
6178;DHT22;3122;48.208;11.174;2023-08-21T03:10:17;19.30;1.00
6178;DHT22;3122;48.208;11.174;2023-08-21T03:15:18;19.40;1.00
6178;DHT22;3122;48.208;11.174;2023-08-21T03:20:19;19.30;1.00
6178;DHT22;3122;48.208;11.174;2023-08-21T03:25:19;19.20;1.00
6178;DHT22;3122;48.208;11.174;2023-08-21T03:30:20;19.00;1.00
6178;DHT22;3122;48.208;11.174;2023-08-21T03:35:21;19.10;1.00
6178;DHT22;3122;48.208;11.174;2023-08-21T03:40:22;19.10;1.00
6178;DHT22;3122;48.208;11.174;2023-08-21T03:45:22;19.20;1.00
6178;DHT22;3122;48.208;11.174;2023-08-21T03:50:23;19.30;1.00
6178;DHT22;3122;48.208;11.174;2023-08-21T03:55:23;19.20;1.00
6178;DHT22;3122;48.208;11.174;2023-08-21T04:00:24;19.10;1.00
6178;DHT22;3122;48.208;11.174;2023-08-21T04:05:25;19.10;1.00
6178;DHT22;3122;48.208;11.174;2023-08-21T04:10:25;19.10;1.00
6178;DHT22;3122;48.208;11.174;2023-08-21T04:15:26;18.90;1.00
6178;DHT22;3122;48.208;11.174;2023-08-21T04:20:27;19.00;1.00
6178;DHT22;3122;48.208;11.174;2023-08-21T04:25:27;19.00;1.00
6178;DHT22;3122;48.208;11.174;2023-08-21T04:30:28;19.00;1.00
6178;DHT22;3122;48.208;11.174;2023-08-21T04:35:28;19.00;1.00
6178;DHT22;3122;48.208;11.174;2023-08-21T04:40:29;19.00;1.00
6178;DHT22;3122;48.208;11.174;2023-08-21T04:45:29;18.90;1.00
6178;DHT22;3122;48.208;11.174;2023-08-21T04:50:30;18.80;1.00
6178;DHT22;3122;48.208;11.174;2023-08-21T04:55:30;18.70;1.00
6178;DHT22;3122;48.208;11.174;2023-08-21T05:00:31;18.80;1.00
6178;DHT22;3122;48.208;11.174;2023-08-21T05:05:31;18.70;1.00
6178;DHT22;3122;48.208;11.174;2023-08-21T05:10:32;18.80;1.00
6178;DHT22;3122;48.208;11.174;2023-08-21T05:15:32;18.80;1.00
6178;DHT22;3122;48.208;11.174;2023-08-21T05:20:33;18.90;1.00
6178;DHT22;3122;48.208;11.174;2023-08-21T05:25:33;19.10;1.00
6178;DHT22;3122;48.208;11.174;2023-08-21T05:30:36;19.20;1.00
6178;DHT22;3122;48.208;11.174;2023-08-21T05:35:36;19.40;1.00
6178;DHT22;3122;48.208;11.174;2023-08-21T05:40:37;19.50;1.00
6178;DHT22;3122;48.208;11.174;2023-08-21T05:45:37;19.70;1.00
6178;DHT22;3122;48.208;11.174;2023-08-21T05:50:38;19.90;1.00
6178;DHT22;3122;48.208;11.174;2023-08-21T05:55:38;19.90;1.00
6178;DHT22;3122;48.208;11.174;2023-08-21T06:00:39;20.00;1.00
6178;DHT22;3122;48.208;11.174;2023-08-21T06:05:40;20.10;1.00
6178;DHT22;3122;48.208;11.174;2023-08-21T06:10:40;20.40;1.00
6178;DHT22;3122;48.208;11.174;2023-08-21T06:15:43;20.50;1.00
6178;DHT22;3122;48.208;11.174;2023-08-21T06:20:45;20.60;1.00
6178;DHT22;3122;48.208;11.174;2023-08-21T06:25:48;20.80;1.00
6178;DHT22;3122;48.208;11.174;2023-08-21T06:30:55;20.80;1.00
6178;DHT22;3122;48.208;11.174;2023-08-21T06:35:56;21.00;1.00
6178;DHT22;3122;48.208;11.174;2023-08-21T06:40:57;21.30;1.00
6178;DHT22;3122;48.208;11.174;2023-08-21T06:45:57;21.40;1.00
6178;DHT22;3122;48.208;11.174;2023-08-21T06:50:58;21.50;1.00
6178;DHT22;3122;48.208;11.174;2023-08-21T06:55:59;21.80;1.00
6178;DHT22;3122;48.208;11.174;2023-08-21T07:01:00;22.00;1.00
6178;DHT22;3122;48.208;11.174;2023-08-21T07:06:01;22.20;1.00
6178;DHT22;3122;48.208;11.174;2023-08-21T07:11:02;22.40;1.00
6178;DHT22;3122;48.208;11.174;2023-08-21T07:16:04;22.60;1.00
6178;DHT22;3122;48.208;11.174;2023-08-21T07:21:06;22.90;1.00
6178;DHT22;3122;48.208;11.174;2023-08-21T07:26:07;23.10;1.00
6178;DHT22;3122;48.208;11.174;2023-08-21T07:31:08;23.30;1.00
6178;DHT22;3122;48.208;11.174;2023-08-21T07:36:09;23.40;1.00
6178;DHT22;3122;48.208;11.174;2023-08-21T07:41:11;23.60;1.00
6178;DHT22;3122;48.208;11.174;2023-08-21T07:46:13;23.80;1.00
6178;DHT22;3122;48.208;11.174;2023-08-21T07:51:16;24.00;1.00
6178;DHT22;3122;48.208;11.174;2023-08-21T07:56:16;24.40;1.00
6178;DHT22;3122;48.208;11.174;2023-08-21T08:01:17;24.50;1.00
6178;DHT22;3122;48.208;11.174;2023-08-21T08:06:17;24.50;1.00
6178;DHT22;3122;48.208;11.174;2023-08-21T08:11:18;25.00;1.00
6178;DHT22;3122;48.208;11.174;2023-08-21T08:16:19;25.10;1.00
6178;DHT22;3122;48.208;11.174;2023-08-21T08:21:20;25.20;1.00
6178;DHT22;3122;48.208;11.174;2023-08-21T08:26:20;25.50;1.00
6178;DHT22;3122;48.208;11.174;2023-08-21T08:31:21;25.60;1.00
6178;DHT22;3122;48.208;11.174;2023-08-21T08:36:24;25.80;1.00
6178;DHT22;3122;48.208;11.174;2023-08-21T08:41:47;25.90;1.00
6178;DHT22;3122;48.208;11.174;2023-08-21T08:46:52;26.10;1.00
6178;DHT22;3122;48.208;11.174;2023-08-21T08:51:54;26.10;1.00
6178;DHT22;3122;48.208;11.174;2023-08-21T08:56:54;26.30;1.00
6178;DHT22;3122;48.208;11.174;2023-08-21T09:01:55;26.60;1.00
6178;DHT22;3122;48.208;11.174;2023-08-21T09:07:09;26.70;1.00
6178;DHT22;3122;48.208;11.174;2023-08-21T09:12:11;26.90;1.00
6178;DHT22;3122;48.208;11.174;2023-08-21T09:17:15;27.00;1.00
6178;DHT22;3122;48.208;11.174;2023-08-21T09:22:17;27.00;1.00
6178;DHT22;3122;48.208;11.174;2023-08-21T09:27:18;27.20;1.00
6178;DHT22;3122;48.208;11.174;2023-08-21T09:32:19;27.30;1.00
6178;DHT22;3122;48.208;11.174;2023-08-21T09:37:19;27.50;1.00
6178;DHT22;3122;48.208;11.174;2023-08-21T09:42:20;27.60;1.00
6178;DHT22;3122;48.208;11.174;2023-08-21T09:47:23;27.80;1.00
6178;DHT22;3122;48.208;11.174;2023-08-21T09:52:26;27.60;1.00
6178;DHT22;3122;48.208;11.174;2023-08-21T09:57:27;28.00;1.00
6178;DHT22;3122;48.208;11.174;2023-08-21T10:02:28;28.30;1.00
6178;DHT22;3122;48.208;11.174;2023-08-21T10:07:29;28.50;1.00
6178;DHT22;3122;48.208;11.174;2023-08-21T10:12:29;28.40;1.00
6178;DHT22;3122;48.208;11.174;2023-08-21T10:17:31;28.20;1.00
6178;DHT22;3122;48.208;11.174;2023-08-21T10:22:49;28.50;1.00
6178;DHT22;3122;48.208;11.174;2023-08-21T10:27:57;28.60;1.00
6178;DHT22;3122;48.208;11.174;2023-08-21T10:32:59;28.50;1.00
6178;DHT22;3122;48.208;11.174;2023-08-21T10:38:12;28.50;1.00
6178;DHT22;3122;48.208;11.174;2023-08-21T10:43:39;28.80;1.00
6178;DHT22;3122;48.208;11.174;2023-08-21T10:48:40;28.80;1.00
6178;DHT22;3122;48.208;11.174;2023-08-21T10:53:40;28.80;1.00
6178;DHT22;3122;48.208;11.174;2023-08-21T10:58:44;29.00;1.00
6178;DHT22;3122;48.208;11.174;2023-08-21T11:03:52;29.00;1.00
6178;DHT22;3122;48.208;11.174;2023-08-21T11:08:52;28.90;1.00
6178;DHT22;3122;48.208;11.174;2023-08-21T11:13:53;28.90;1.00
6178;DHT22;3122;48.208;11.174;2023-08-21T11:18:55;29.20;1.00
6178;DHT22;3122;48.208;11.174;2023-08-21T11:23:55;29.10;1.00
6178;DHT22;3122;48.208;11.174;2023-08-21T11:28:56;29.50;1.00
6178;DHT22;3122;48.208;11.174;2023-08-21T11:33:58;29.70;1.00
6178;DHT22;3122;48.208;11.174;2023-08-21T11:38:59;29.70;1.00
6178;DHT22;3122;48.208;11.174;2023-08-21T11:44:03;30.10;1.00
6178;DHT22;3122;48.208;11.174;2023-08-21T11:49:04;30.00;1.00
6178;DHT22;3122;48.208;11.174;2023-08-21T11:54:06;29.60;1.00
6178;DHT22;3122;48.208;11.174;2023-08-21T11:59:06;30.00;1.00
6178;DHT22;3122;48.208;11.174;2023-08-21T12:04:16;30.00;1.00
6178;DHT22;3122;48.208;11.174;2023-08-21T12:09:16;30.30;1.00
6178;DHT22;3122;48.208;11.174;2023-08-21T12:14:19;30.00;1.00
6178;DHT22;3122;48.208;11.174;2023-08-21T12:19:21;30.40;1.00
6178;DHT22;3122;48.208;11.174;2023-08-21T12:24:22;30.50;1.00
6178;DHT22;3122;48.208;11.174;2023-08-21T12:29:23;30.50;1.00
6178;DHT22;3122;48.208;11.174;2023-08-21T12:34:24;30.30;1.00
6178;DHT22;3122;48.208;11.174;2023-08-21T12:39:24;30.20;1.00
6178;DHT22;3122;48.208;11.174;2023-08-21T12:44:25;30.30;1.00
6178;DHT22;3122;48.208;11.174;2023-08-21T12:49:25;30.60;1.00
6178;DHT22;3122;48.208;11.174;2023-08-21T12:54:26;30.80;1.00
6178;DHT22;3122;48.208;11.174;2023-08-21T12:59:26;30.90;1.00
6178;DHT22;3122;48.208;11.174;2023-08-21T13:04:27;30.90;1.00
6178;DHT22;3122;48.208;11.174;2023-08-21T13:09:28;31.10;1.00
6178;DHT22;3122;48.208;11.174;2023-08-21T13:14:28;31.00;1.00
6178;DHT22;3122;48.208;11.174;2023-08-21T13:19:29;31.60;1.00
6178;DHT22;3122;48.208;11.174;2023-08-21T13:24:29;31.40;1.00
6178;DHT22;3122;48.208;11.174;2023-08-21T13:29:30;31.20;1.00
6178;DHT22;3122;48.208;11.174;2023-08-21T13:34:31;30.90;1.00
6178;DHT22;3122;48.208;11.174;2023-08-21T13:39:31;30.70;1.00
6178;DHT22;3122;48.208;11.174;2023-08-21T13:44:32;30.90;1.00
6178;DHT22;3122;48.208;11.174;2023-08-21T13:49:32;31.20;1.00
6178;DHT22;3122;48.208;11.174;2023-08-21T13:54:33;30.90;1.00
6178;DHT22;3122;48.208;11.174;2023-08-21T13:59:34;30.90;1.00
6178;DHT22;3122;48.208;11.174;2023-08-21T14:04:34;31.00;1.00
6178;DHT22;3122;48.208;11.174;2023-08-21T14:09:35;31.00;1.00
6178;DHT22;3122;48.208;11.174;2023-08-21T14:14:36;30.90;1.00
6178;DHT22;3122;48.208;11.174;2023-08-21T14:19:37;30.90;1.00
6178;DHT22;3122;48.208;11.174;2023-08-21T14:24:38;31.30;1.00
6178;DHT22;3122;48.208;11.174;2023-08-21T14:29:38;31.70;1.00
6178;DHT22;3122;48.208;11.174;2023-08-21T14:34:39;31.70;1.00
6178;DHT22;3122;48.208;11.174;2023-08-21T14:39:40;31.80;1.00
6178;DHT22;3122;48.208;11.174;2023-08-21T14:44:41;31.60;1.00
6178;DHT22;3122;48.208;11.174;2023-08-21T14:49:41;31.70;1.00
6178;DHT22;3122;48.208;11.174;2023-08-21T14:54:42;31.60;1.00
6178;DHT22;3122;48.208;11.174;2023-08-21T14:59:42;31.60;1.00
6178;DHT22;3122;48.208;11.174;2023-08-21T15:04:43;31.90;1.00
6178;DHT22;3122;48.208;11.174;2023-08-21T15:09:44;32.10;1.00
6178;DHT22;3122;48.208;11.174;2023-08-21T15:14:45;32.30;1.00
6178;DHT22;3122;48.208;11.174;2023-08-21T15:19:47;32.10;1.00
6178;DHT22;3122;48.208;11.174;2023-08-21T15:24:49;32.20;1.00
6178;DHT22;3122;48.208;11.174;2023-08-21T15:29:49;32.50;1.00
6178;DHT22;3122;48.208;11.174;2023-08-21T15:34:50;32.30;1.00
6178;DHT22;3122;48.208;11.174;2023-08-21T15:39:51;32.70;1.00
6178;DHT22;3122;48.208;11.174;2023-08-21T15:44:51;32.70;1.00
6178;DHT22;3122;48.208;11.174;2023-08-21T15:49:52;32.70;1.00
6178;DHT22;3122;48.208;11.174;2023-08-21T15:54:52;33.20;1.00
6178;DHT22;3122;48.208;11.174;2023-08-21T15:59:53;33.20;1.00
6178;DHT22;3122;48.208;11.174;2023-08-21T16:04:53;33.00;1.00
6178;DHT22;3122;48.208;11.174;2023-08-21T16:09:54;32.50;1.00
6178;DHT22;3122;48.208;11.174;2023-08-21T16:14:55;32.40;1.00
6178;DHT22;3122;48.208;11.174;2023-08-21T16:19:55;33.10;1.00
6178;DHT22;3122;48.208;11.174;2023-08-21T16:24:56;33.40;1.00
6178;DHT22;3122;48.208;11.174;2023-08-21T16:29:56;33.50;1.00
6178;DHT22;3122;48.208;11.174;2023-08-21T16:34:57;34.40;1.00
6178;DHT22;3122;48.208;11.174;2023-08-21T16:39:58;33.80;1.00
6178;DHT22;3122;48.208;11.174;2023-08-21T16:44:58;34.20;1.00
6178;DHT22;3122;48.208;11.174;2023-08-21T16:49:59;34.00;1.00
6178;DHT22;3122;48.208;11.174;2023-08-21T16:54:59;33.80;1.00
6178;DHT22;3122;48.208;11.174;2023-08-21T17:00:00;33.40;1.00
6178;DHT22;3122;48.208;11.174;2023-08-21T17:05:00;33.30;1.00
6178;DHT22;3122;48.208;11.174;2023-08-21T17:10:01;33.10;1.00
6178;DHT22;3122;48.208;11.174;2023-08-21T17:15:04;33.50;1.00
6178;DHT22;3122;48.208;11.174;2023-08-21T17:20:05;33.40;1.00
6178;DHT22;3122;48.208;11.174;2023-08-21T17:25:07;32.90;1.00
6178;DHT22;3122;48.208;11.174;2023-08-21T17:30:09;32.30;1.00
6178;DHT22;3122;48.208;11.174;2023-08-21T17:35:11;31.50;1.00
6178;DHT22;3122;48.208;11.174;2023-08-21T17:40:11;31.10;1.00
6178;DHT22;3122;48.208;11.174;2023-08-21T17:45:12;30.80;1.00
6178;DHT22;3122;48.208;11.174;2023-08-21T17:50:12;30.50;1.00
6178;DHT22;3122;48.208;11.174;2023-08-21T17:55:14;30.20;1.00
6178;DHT22;3122;48.208;11.174;2023-08-21T18:00:15;29.80;1.00
6178;DHT22;3122;48.208;11.174;2023-08-21T18:05:15;29.60;1.00
6178;DHT22;3122;48.208;11.174;2023-08-21T18:10:16;29.40;1.00
6178;DHT22;3122;48.208;11.174;2023-08-21T18:15:17;29.20;1.00
6178;DHT22;3122;48.208;11.174;2023-08-21T18:20:17;29.00;1.00
6178;DHT22;3122;48.208;11.174;2023-08-21T18:25:18;28.80;1.00
6178;DHT22;3122;48.208;11.174;2023-08-21T18:30:19;28.50;1.00
6178;DHT22;3122;48.208;11.174;2023-08-21T18:35:19;28.30;1.00
6178;DHT22;3122;48.208;11.174;2023-08-21T18:40:20;28.10;1.00
6178;DHT22;3122;48.208;11.174;2023-08-21T18:45:20;27.90;1.00
6178;DHT22;3122;48.208;11.174;2023-08-21T18:55:40;27.70;1.00
6178;DHT22;3122;48.208;11.174;2023-08-21T19:00:41;27.60;1.00
6178;DHT22;3122;48.208;11.174;2023-08-21T19:05:42;27.40;1.00
6178;DHT22;3122;48.208;11.174;2023-08-21T19:10:43;27.30;1.00
6178;DHT22;3122;48.208;11.174;2023-08-21T19:15:43;27.20;1.00
6178;DHT22;3122;48.208;11.174;2023-08-21T19:20:44;27.10;1.00
6178;DHT22;3122;48.208;11.174;2023-08-21T19:25:44;27.10;1.00
6178;DHT22;3122;48.208;11.174;2023-08-21T19:30:46;27.00;1.00
6178;DHT22;3122;48.208;11.174;2023-08-21T19:35:49;26.80;1.00
6178;DHT22;3122;48.208;11.174;2023-08-21T19:40:51;26.60;1.00
6178;DHT22;3122;48.208;11.174;2023-08-21T19:45:54;26.40;1.00
6178;DHT22;3122;48.208;11.174;2023-08-21T19:50:58;26.20;1.00
6178;DHT22;3122;48.208;11.174;2023-08-21T19:55:59;26.20;1.00
6178;DHT22;3122;48.208;11.174;2023-08-21T20:01:00;26.20;1.00
6178;DHT22;3122;48.208;11.174;2023-08-21T20:06:01;26.00;1.00
6178;DHT22;3122;48.208;11.174;2023-08-21T20:11:03;25.90;1.00
6178;DHT22;3122;48.208;11.174;2023-08-21T20:16:06;25.90;1.00
6178;DHT22;3122;48.208;11.174;2023-08-21T20:21:10;25.90;1.00
6178;DHT22;3122;48.208;11.174;2023-08-21T20:26:13;25.90;1.00
6178;DHT22;3122;48.208;11.174;2023-08-21T20:31:13;25.70;1.00
6178;DHT22;3122;48.208;11.174;2023-08-21T20:36:14;25.50;1.00
6178;DHT22;3122;48.208;11.174;2023-08-21T20:41:15;25.50;1.00
6178;DHT22;3122;48.208;11.174;2023-08-21T20:46:15;25.20;1.00
6178;DHT22;3122;48.208;11.174;2023-08-21T20:51:16;25.20;1.00
6178;DHT22;3122;48.208;11.174;2023-08-21T20:56:16;25.10;1.00
6178;DHT22;3122;48.208;11.174;2023-08-21T21:01:17;25.10;1.00
6178;DHT22;3122;48.208;11.174;2023-08-21T21:06:17;25.00;1.00
6178;DHT22;3122;48.208;11.174;2023-08-21T21:11:18;24.80;1.00
6178;DHT22;3122;48.208;11.174;2023-08-21T21:16:18;24.80;1.00
6178;DHT22;3122;48.208;11.174;2023-08-21T21:21:19;24.70;1.00
6178;DHT22;3122;48.208;11.174;2023-08-21T21:26:20;24.70;1.00
6178;DHT22;3122;48.208;11.174;2023-08-21T21:31:20;24.70;1.00
6178;DHT22;3122;48.208;11.174;2023-08-21T21:36:21;24.50;1.00
6178;DHT22;3122;48.208;11.174;2023-08-21T21:41:21;24.20;1.00
6178;DHT22;3122;48.208;11.174;2023-08-21T21:46:26;24.10;1.00
6178;DHT22;3122;48.208;11.174;2023-08-21T21:51:26;24.10;1.00
6178;DHT22;3122;48.208;11.174;2023-08-21T21:56:27;24.00;1.00
6178;DHT22;3122;48.208;11.174;2023-08-21T22:01:28;23.90;1.00
6178;DHT22;3122;48.208;11.174;2023-08-21T22:06:29;23.80;1.00
6178;DHT22;3122;48.208;11.174;2023-08-21T22:11:31;23.80;1.00
6178;DHT22;3122;48.208;11.174;2023-08-21T22:16:31;23.80;1.00
6178;DHT22;3122;48.208;11.174;2023-08-21T22:21:32;23.80;1.00
6178;DHT22;3122;48.208;11.174;2023-08-21T22:26:33;23.90;1.00
6178;DHT22;3122;48.208;11.174;2023-08-21T22:31:33;23.90;1.00
6178;DHT22;3122;48.208;11.174;2023-08-21T22:36:34;23.90;1.00
6178;DHT22;3122;48.208;11.174;2023-08-21T22:41:34;24.00;1.00
6178;DHT22;3122;48.208;11.174;2023-08-21T22:46:35;23.80;1.00
6178;DHT22;3122;48.208;11.174;2023-08-21T22:51:37;23.70;1.00
6178;DHT22;3122;48.208;11.174;2023-08-21T22:56:37;23.60;1.00
6178;DHT22;3122;48.208;11.174;2023-08-21T23:01:38;23.40;1.00
6178;DHT22;3122;48.208;11.174;2023-08-21T23:06:39;23.30;1.00
6178;DHT22;3122;48.208;11.174;2023-08-21T23:11:39;23.10;1.00
6178;DHT22;3122;48.208;11.174;2023-08-21T23:16:40;23.00;1.00
6178;DHT22;3122;48.208;11.174;2023-08-21T23:21:40;22.90;1.00
6178;DHT22;3122;48.208;11.174;2023-08-21T23:26:41;23.00;1.00
6178;DHT22;3122;48.208;11.174;2023-08-21T23:31:42;23.00;1.00
6178;DHT22;3122;48.208;11.174;2023-08-21T23:36:52;22.80;1.00
6178;DHT22;3122;48.208;11.174;2023-08-21T23:41:57;22.80;1.00
6178;DHT22;3122;48.208;11.174;2023-08-21T23:46:58;22.50;1.00
6178;DHT22;3122;48.208;11.174;2023-08-21T23:51:59;22.50;1.00
6178;DHT22;3122;48.208;11.174;2023-08-21T23:57:00;22.40;1.00
